createdAt,value
2023-01-07T00:02:28.763Z,100976.28
2023-01-07T00:05:13.957Z,101030.69
2023-01-07T00:07:59.337Z,101010.78
2023-01-07T00:10:43.073Z,101029.00
2023-01-07T00:13:27.009Z,101052.03
2023-01-07T00:16:13.032Z,101056.19
2023-01-07T00:18:58.761Z,101011.78
2023-01-07T00:21:44.120Z,101063.63
2023-01-07T00:24:27.905Z,101060.94
2023-01-07T00:27:11.712Z,101020.00
2023-01-07T00:29:55.478Z,101057.59
2023-01-07T00:32:57.834Z,101056.25
2023-01-07T00:35:41.533Z,101016.22
2023-01-07T00:38:26.747Z,101068.16
2023-01-07T00:41:10.755Z,101040.44
2023-01-07T00:43:55.001Z,101068.84
2023-01-07T00:46:38.875Z,101064.44
2023-01-07T00:49:24.526Z,101068.44
2023-01-07T00:52:08.332Z,101066.19
2023-01-07T00:54:53.588Z,101072.31
2023-01-07T00:57:37.364Z,101055.28
2023-01-07T01:00:23.242Z,101062.47
2023-01-07T01:03:07.087Z,101073.47
2023-01-07T01:05:52.004Z,101075.06
2023-01-07T01:08:36.092Z,101084.84
2023-01-07T01:11:21.269Z,101091.41
2023-01-07T01:14:05.097Z,101083.38
2023-01-07T01:16:49.159Z,101083.44
2023-01-07T01:19:32.956Z,101086.66
2023-01-07T01:22:16.805Z,101081.38
2023-01-07T01:25:01.359Z,101042.69
2023-01-07T01:27:46.878Z,101059.69
2023-01-07T01:30:30.639Z,101081.13
2023-01-07T01:33:16.943Z,101046.06
2023-01-07T01:36:05.361Z,101063.72
2023-01-07T01:38:49.172Z,101087.44
2023-01-07T01:41:33.336Z,101068.03
2023-01-07T01:44:46.915Z,101060.50
2023-01-07T01:47:40.032Z,101047.38
2023-01-07T01:50:28.813Z,101050.63
2023-01-07T01:53:17.840Z,101023.72
2023-01-07T01:56:10.314Z,101058.22
2023-01-07T01:58:58.145Z,101022.03
2023-01-07T02:01:43.914Z,101058.31
2023-01-07T02:04:31.948Z,101026.19
2023-01-07T02:07:18.735Z,101038.66
2023-01-07T02:10:15.030Z,101048.56
2023-01-07T02:13:16.879Z,101045.00
2023-01-07T02:16:06.521Z,101014.03
2023-01-07T02:19:11.068Z,101002.03
2023-01-07T02:22:05.484Z,101048.78
2023-01-07T02:25:15.448Z,101052.03
2023-01-07T02:28:24.615Z,101020.22
2023-01-07T02:31:37.655Z,101013.47
2023-01-07T02:34:29.281Z,101061.31
2023-01-07T02:37:18.546Z,100982.34
2023-01-07T02:40:11.616Z,101055.66
2023-01-07T02:43:08.410Z,101055.66
2023-01-07T02:46:02.030Z,101026.69
2023-01-07T02:48:47.222Z,101049.50
2023-01-07T02:51:37.352Z,101008.56
2023-01-07T02:54:24.853Z,101033.56
2023-01-07T02:57:27.331Z,101040.28
2023-01-07T03:00:18.754Z,101041.94
2023-01-07T03:03:18.668Z,101012.81
2023-01-07T03:06:16.148Z,101031.13
2023-01-07T03:09:11.848Z,101029.09
2023-01-07T03:12:06.650Z,101034.91
2023-01-07T03:14:53.078Z,100997.00
2023-01-07T03:17:42.394Z,101023.50
2023-01-07T03:20:27.127Z,101034.44
2023-01-07T03:23:14.135Z,101021.81
2023-01-07T03:26:05.056Z,101027.78
2023-01-07T03:28:51.215Z,101016.56
2023-01-07T03:31:37.907Z,101035.00
2023-01-07T03:34:26.313Z,101050.22
2023-01-07T03:37:13.366Z,101009.78
2023-01-07T03:39:58.546Z,101040.78
2023-01-07T03:42:49.024Z,101042.31
2023-01-07T03:45:39.251Z,101036.06
2023-01-07T03:48:23.133Z,101044.75
2023-01-07T03:51:06.850Z,101034.75
2023-01-07T03:53:50.678Z,101037.78
2023-01-07T03:56:34.563Z,101038.69
2023-01-07T03:59:19.760Z,101040.47
2023-01-07T04:02:04.849Z,101040.59
2023-01-07T04:04:49.609Z,101038.88
2023-01-07T04:07:33.895Z,101038.88
2023-01-07T04:10:18.383Z,101037.13
2023-01-07T04:13:02.419Z,101040.88
2023-01-07T04:15:47.930Z,101042.16
2023-01-07T04:18:32.145Z,101018.72
2023-01-07T04:21:15.985Z,101026.75
2023-01-07T04:23:59.827Z,101042.09
2023-01-07T04:26:44.177Z,101038.94
2023-01-07T04:29:29.078Z,101024.19
2023-01-07T04:32:14.327Z,101044.66
2023-01-07T04:34:58.578Z,101029.09
2023-01-07T04:37:43.643Z,101050.84
2023-01-07T04:40:27.798Z,101047.66
2023-01-07T04:43:12.111Z,101001.09
2023-01-07T04:45:55.942Z,101040.78
2023-01-07T04:48:41.284Z,101048.47
2023-01-07T04:51:25.340Z,101061.44
2023-01-07T04:54:09.622Z,101042.34
2023-01-07T04:56:53.634Z,101042.00
2023-01-07T04:59:37.572Z,101040.00
2023-01-07T05:02:21.487Z,101036.91
2023-01-07T05:05:07.741Z,101033.78
2023-01-07T05:07:52.574Z,101033.66
2023-01-07T05:10:37.866Z,101038.41
2023-01-07T05:13:24.468Z,101041.28
2023-01-07T05:16:09.313Z,101031.00
2023-01-07T05:18:53.545Z,101012.72
2023-01-07T05:21:39.080Z,100996.16
2023-01-07T05:24:23.850Z,101046.19
2023-01-07T05:27:08.972Z,101048.88
2023-01-07T05:29:54.464Z,101050.56
2023-01-07T05:32:38.418Z,101045.41
2023-01-07T05:35:22.218Z,101045.63
2023-01-07T05:38:07.652Z,101056.78
2023-01-07T05:40:51.944Z,101050.56
2023-01-07T05:43:39.311Z,101036.59
2023-01-07T05:46:23.239Z,101043.78
2023-01-07T05:49:07.521Z,101038.44
2023-01-07T05:51:51.368Z,101046.31
2023-01-07T05:54:36.696Z,100993.78
2023-01-07T05:57:20.568Z,101043.22
2023-01-07T06:00:04.511Z,101046.47
2023-01-07T06:02:55.966Z,101050.66
2023-01-07T06:05:39.791Z,101061.06
2023-01-07T06:08:24.212Z,101069.25
2023-01-07T06:11:10.030Z,101072.97
2023-01-07T06:13:53.831Z,101068.47
2023-01-07T06:16:37.611Z,101053.19
2023-01-07T06:19:22.986Z,101061.53
2023-01-07T06:22:06.876Z,101082.25
2023-01-07T06:24:50.725Z,101071.56
2023-01-07T06:27:36.085Z,101064.56
2023-01-07T06:30:20.052Z,101036.59
2023-01-07T06:33:05.511Z,101053.69
2023-01-07T06:35:49.429Z,101071.53
2023-01-07T06:38:33.262Z,101065.31
2023-01-07T06:41:16.995Z,101069.31
2023-01-07T06:44:02.192Z,101062.22
2023-01-07T06:46:47.495Z,101051.59
2023-01-07T06:49:31.332Z,101067.97
2023-01-07T06:52:15.038Z,100924.72
2023-01-07T06:54:58.828Z,101064.91
2023-01-07T06:57:42.640Z,101060.69
2023-01-07T07:00:27.828Z,101028.22
2023-01-07T07:03:12.008Z,101071.75
2023-01-07T07:05:55.873Z,101068.13
2023-01-07T07:08:39.896Z,101037.69
2023-01-07T07:11:23.943Z,101079.47
2023-01-07T07:14:07.942Z,101088.31
2023-01-07T07:16:53.071Z,101066.06
2023-01-07T07:19:36.871Z,101042.06
2023-01-07T07:22:20.828Z,101076.56
2023-01-07T07:25:05.068Z,101067.97
2023-01-07T07:27:49.057Z,101049.16
2023-01-07T07:30:46.326Z,101068.38
2023-01-07T07:33:33.088Z,101052.44
2023-01-07T07:36:16.923Z,101062.88
2023-01-07T07:39:00.751Z,101057.91
2023-01-07T07:41:44.640Z,101062.81
2023-01-07T07:44:28.517Z,101063.84
2023-01-07T07:47:12.452Z,101025.41
2023-01-07T07:49:57.809Z,101043.25
2023-01-07T07:52:41.834Z,101054.16
2023-01-07T07:55:26.249Z,101039.91
2023-01-07T07:58:10.616Z,101049.09
2023-01-07T08:00:54.669Z,101042.16
2023-01-07T08:03:38.562Z,101046.41
2023-01-07T08:06:23.860Z,101020.34
2023-01-07T08:09:07.566Z,101056.09
2023-01-07T08:11:51.561Z,101034.84
2023-01-07T08:14:35.399Z,101055.41
2023-01-07T08:17:19.182Z,101062.97
2023-01-07T08:20:03.089Z,101055.19
2023-01-07T08:22:48.617Z,101057.72
2023-01-07T08:25:33.511Z,101055.00
2023-01-07T08:28:17.561Z,101060.59
2023-01-07T08:31:03.327Z,100927.94
2023-01-07T08:33:47.332Z,101061.66
2023-01-07T08:36:31.032Z,101023.78
2023-01-07T08:39:16.357Z,101058.94
2023-01-07T08:42:00.235Z,101061.66
2023-01-07T08:44:44.135Z,101053.03
2023-01-07T08:47:28.434Z,101048.47
2023-01-07T08:50:12.174Z,101044.94
2023-01-07T08:52:56.259Z,101037.66
2023-01-07T08:55:41.302Z,100901.03
2023-01-07T08:58:25.947Z,101033.78
2023-01-07T09:01:10.257Z,101031.34
2023-01-07T09:03:54.211Z,101019.13
2023-01-07T09:06:37.988Z,101016.69
2023-01-07T09:09:22.651Z,101013.31
2023-01-07T09:12:10.816Z,101007.72
2023-01-07T09:14:54.979Z,100980.06
2023-01-07T09:17:38.906Z,100969.00
2023-01-07T09:20:22.727Z,100862.25
2023-01-07T09:23:06.615Z,100972.47
2023-01-07T09:25:50.409Z,100993.50
2023-01-07T09:28:35.536Z,100988.09
2023-01-07T09:31:19.459Z,100986.63
2023-01-07T09:34:03.305Z,100968.88
2023-01-07T09:36:47.064Z,100978.69
2023-01-07T09:39:31.008Z,100968.28
2023-01-07T09:42:24.210Z,100976.25
2023-01-07T09:45:18.128Z,100964.78
2023-01-07T09:48:06.146Z,100961.44
2023-01-07T09:50:55.395Z,100958.84
2023-01-07T09:53:44.105Z,100957.72
2023-01-07T09:56:30.839Z,100955.38
2023-01-07T09:59:15.623Z,100939.94
2023-01-07T10:02:12.584Z,100958.00
2023-01-07T10:05:03.524Z,100943.63
2023-01-07T10:07:54.174Z,100931.09
2023-01-07T10:11:06.417Z,100895.94
2023-01-07T10:14:21.443Z,100900.44
2023-01-07T10:17:19.612Z,100915.66
2023-01-07T10:20:09.504Z,100921.06
2023-01-07T10:22:57.957Z,100912.56
2023-01-07T10:25:45.327Z,100916.97
2023-01-07T10:28:35.609Z,100901.78
2023-01-07T10:31:23.833Z,100868.22
2023-01-07T10:34:15.566Z,100898.00
2023-01-07T10:37:03.999Z,100887.22
2023-01-07T10:39:57.887Z,100891.66
2023-01-07T10:42:49.609Z,100896.94
2023-01-07T10:45:58.577Z,100895.72
2023-01-07T10:49:16.029Z,100897.72
2023-01-07T10:52:14.250Z,100889.34
2023-01-07T10:55:23.163Z,100881.16
2023-01-07T10:58:10.754Z,100867.41
2023-01-07T11:00:54.650Z,100882.63
2023-01-07T11:03:40.277Z,100849.53
2023-01-07T11:06:46.022Z,100880.97
2023-01-07T11:09:33.653Z,100873.28
2023-01-07T11:12:26.488Z,100863.44
2023-01-07T11:15:18.081Z,100869.75
2023-01-07T11:18:05.177Z,100853.41
2023-01-07T11:20:51.021Z,100854.00
2023-01-07T11:23:37.970Z,100859.97
2023-01-07T11:26:27.579Z,100845.31
2023-01-07T11:29:18.267Z,100842.97
2023-01-07T11:32:05.623Z,100851.31
2023-01-07T11:34:56.498Z,100861.84
2023-01-07T11:37:42.321Z,100862.44
2023-01-07T11:40:28.999Z,100854.69
2023-01-07T11:43:23.502Z,100847.41
2023-01-07T11:46:23.916Z,100853.84
2023-01-07T11:49:23.285Z,100840.94
2023-01-07T11:52:07.150Z,100844.19
2023-01-07T11:54:52.457Z,100847.56
2023-01-07T11:57:38.077Z,100828.53
2023-01-07T12:00:22.472Z,100841.03
2023-01-07T12:03:12.758Z,100828.09
2023-01-07T12:05:59.090Z,100825.50
2023-01-07T12:08:50.431Z,100814.00
2023-01-07T12:11:36.735Z,100816.97
2023-01-07T12:14:27.161Z,100825.22
2023-01-07T12:17:16.635Z,100803.34
2023-01-07T12:20:35.527Z,100818.47
2023-01-07T12:23:29.968Z,100812.00
2023-01-07T12:26:17.625Z,100816.50
2023-01-07T12:29:14.210Z,100805.44
2023-01-07T12:32:11.089Z,100766.41
2023-01-07T12:35:14.704Z,100798.31
2023-01-07T12:38:04.892Z,100802.94
2023-01-07T12:40:52.778Z,100800.59
2023-01-07T12:43:41.650Z,100778.00
2023-01-07T12:46:28.137Z,100801.16
2023-01-07T12:49:21.959Z,100807.00
2023-01-07T12:52:12.029Z,100805.59
2023-01-07T12:55:00.791Z,100807.38
2023-01-07T12:57:52.132Z,100793.13
2023-01-07T13:00:42.079Z,100806.34
2023-01-07T13:03:44.512Z,100802.69
2023-01-07T13:06:42.691Z,100800.75
2023-01-07T13:09:31.884Z,100804.50
2023-01-07T13:12:43.229Z,100799.03
2023-01-07T13:15:29.026Z,100805.50
2023-01-07T13:18:16.742Z,100808.88
2023-01-07T13:21:08.507Z,100779.66
2023-01-07T13:24:15.297Z,100796.75
2023-01-07T13:27:11.763Z,100813.84
2023-01-07T13:30:08.620Z,100801.53
2023-01-07T13:33:16.878Z,100791.56
2023-01-07T13:36:16.126Z,100812.28
2023-01-07T13:39:27.220Z,100825.78
2023-01-07T13:42:25.246Z,100812.22
2023-01-07T13:45:14.835Z,100779.09
2023-01-07T13:48:01.130Z,100804.66
2023-01-07T13:50:55.315Z,100813.22
2023-01-07T13:53:47.497Z,100802.31
2023-01-07T13:56:37.142Z,100746.34
2023-01-07T13:59:46.402Z,100777.59
2023-01-07T14:02:31.357Z,100778.94
2023-01-07T14:05:25.608Z,100793.09
2023-01-07T14:08:09.629Z,100815.00
2023-01-07T14:10:55.079Z,100831.13
2023-01-07T14:13:46.561Z,100828.25
2023-01-07T14:16:37.655Z,100788.72
2023-01-07T14:19:33.236Z,100814.63
2023-01-07T14:22:28.883Z,100814.06
2023-01-07T14:25:37.730Z,100789.31
2023-01-07T14:28:47.960Z,100834.66
2023-01-07T14:31:32.603Z,100801.03
2023-01-07T14:34:24.292Z,100757.78
2023-01-07T14:37:18.472Z,100804.75
2023-01-07T14:40:42.788Z,100811.84
2023-01-07T14:44:06.751Z,100833.34
2023-01-07T14:46:53.763Z,100788.09
2023-01-07T14:50:11.511Z,100827.00
2023-01-07T14:53:38.382Z,100812.75
2023-01-07T14:56:32.836Z,100789.22
2023-01-07T14:59:32.421Z,100833.78
2023-01-07T15:02:46.192Z,100841.34
2023-01-07T15:06:00.441Z,100837.91
2023-01-07T15:09:08.134Z,100845.94
2023-01-07T15:12:11.608Z,100829.44
2023-01-07T15:15:21.651Z,100850.25
2023-01-07T15:18:09.981Z,100830.34
2023-01-07T15:21:09.039Z,100832.94
2023-01-07T15:24:02.707Z,100852.00
2023-01-07T15:26:51.933Z,100845.75
2023-01-07T15:29:45.522Z,100853.28
2023-01-07T15:32:40.351Z,100854.88
2023-01-07T15:35:32.939Z,100870.03
2023-01-07T15:38:28.859Z,100871.72
2023-01-07T15:41:30.009Z,100864.63
2023-01-07T15:44:19.136Z,100876.38
2023-01-07T15:47:03.877Z,100868.63
2023-01-07T15:49:47.732Z,100869.50
2023-01-07T15:52:33.001Z,100869.41
2023-01-07T15:55:24.316Z,100855.03
2023-01-07T15:58:14.499Z,100874.97
2023-01-07T16:01:00.875Z,100879.03
2023-01-07T16:03:45.171Z,100878.31
2023-01-07T16:06:36.004Z,100880.09
2023-01-07T16:09:22.748Z,100841.19
2023-01-07T16:12:21.429Z,100885.63
2023-01-07T16:15:23.780Z,100879.06
2023-01-07T16:18:19.481Z,100883.38
2023-01-07T16:21:06.909Z,100891.78
2023-01-07T16:23:50.869Z,100888.06
2023-01-07T16:26:40.867Z,100890.59
2023-01-07T16:29:28.063Z,100897.53
2023-01-07T16:32:13.227Z,100896.53
2023-01-07T16:35:03.684Z,100896.84
2023-01-07T16:37:50.097Z,100899.63
2023-01-07T16:40:37.231Z,100904.03
2023-01-07T16:43:55.155Z,100912.50
2023-01-07T16:46:42.911Z,100870.66
2023-01-07T16:49:29.696Z,100891.69
2023-01-07T16:52:18.066Z,100900.09
2023-01-07T16:55:02.019Z,100913.16
2023-01-07T16:57:48.060Z,100906.41
2023-01-07T17:00:33.250Z,100909.06
2023-01-07T17:03:17.793Z,100904.00
2023-01-07T17:06:05.813Z,100884.06
2023-01-07T17:08:51.831Z,100883.09
2023-01-07T17:11:39.022Z,100910.16
2023-01-07T17:14:45.453Z,100918.09
2023-01-07T17:17:32.920Z,100914.41
2023-01-07T17:20:22.463Z,100909.06
2023-01-07T17:23:32.876Z,100913.38
2023-01-07T17:26:23.064Z,100902.00
2023-01-07T17:29:13.520Z,100921.94
2023-01-07T17:31:57.406Z,100930.34
2023-01-07T17:34:41.288Z,100933.06
2023-01-07T17:37:25.038Z,100925.41
2023-01-07T17:40:09.825Z,100900.88
2023-01-07T17:43:12.184Z,100917.53
2023-01-07T17:45:56.051Z,100911.78
2023-01-07T17:48:40.660Z,100897.00
2023-01-07T17:51:25.252Z,100915.94
2023-01-07T17:54:17.457Z,100924.56
2023-01-07T17:57:01.715Z,100918.47
2023-01-07T17:59:48.267Z,100883.25
2023-01-07T18:02:33.101Z,100924.91
2023-01-07T18:05:19.574Z,100924.50
2023-01-07T18:08:03.408Z,100920.00
2023-01-07T18:11:14.247Z,100907.88
2023-01-07T18:13:58.545Z,100940.44
2023-01-07T18:16:44.462Z,100942.81
2023-01-07T18:19:28.654Z,100908.16
2023-01-07T18:22:12.629Z,100948.56
2023-01-07T18:24:56.947Z,100911.97
2023-01-07T18:27:40.989Z,100947.59
2023-01-07T18:30:25.388Z,100948.06
2023-01-07T18:33:12.902Z,100910.56
2023-01-07T18:35:56.947Z,100901.75
2023-01-07T18:38:41.240Z,100957.09
2023-01-07T18:41:25.139Z,100961.13
2023-01-07T18:44:09.014Z,100945.69
2023-01-07T18:46:52.888Z,100950.72
2023-01-07T18:49:38.077Z,100952.53
2023-01-07T18:52:21.852Z,100952.13
2023-01-07T18:55:06.406Z,100951.94
2023-01-07T18:57:52.492Z,100955.22
2023-01-07T19:00:36.624Z,100954.22
2023-01-07T19:03:20.609Z,100953.13
2023-01-07T19:06:08.964Z,100956.84
2023-01-07T19:08:52.820Z,100946.41
2023-01-07T19:11:38.428Z,100950.47
2023-01-07T19:14:22.858Z,100946.94
2023-01-07T19:17:07.653Z,100947.22
2023-01-07T19:19:52.760Z,100925.31
2023-01-07T19:22:38.009Z,100917.09
2023-01-07T19:25:21.918Z,100955.34
2023-01-07T19:28:06.148Z,100954.94
2023-01-07T19:30:49.976Z,100948.81
2023-01-07T19:33:34.118Z,100961.44
2023-01-07T19:36:18.823Z,100967.25
2023-01-07T19:39:04.180Z,100950.59
2023-01-07T19:41:48.373Z,100956.19
2023-01-07T19:44:34.442Z,100957.19
2023-01-07T19:47:18.424Z,100945.41
2023-01-07T19:50:02.423Z,100957.72
2023-01-07T19:52:46.916Z,100959.25
2023-01-07T19:55:32.201Z,100965.16
2023-01-07T19:58:16.568Z,100917.81
2023-01-07T20:01:03.431Z,100962.56
2023-01-07T20:03:47.983Z,100940.69
2023-01-07T20:06:34.880Z,100962.66
2023-01-07T20:09:18.854Z,100955.91
2023-01-07T20:12:04.392Z,100951.47
2023-01-07T20:14:48.708Z,100972.81
2023-01-07T20:17:33.333Z,100950.81
2023-01-07T20:20:17.385Z,100956.34
2023-01-07T20:23:01.195Z,100959.53
2023-01-07T20:25:45.038Z,100955.47
2023-01-07T20:28:30.283Z,100951.19
2023-01-07T20:31:16.296Z,100954.31
2023-01-07T20:34:00.799Z,100933.22
2023-01-07T20:36:44.490Z,100924.16
2023-01-07T20:39:28.343Z,100936.91
2023-01-07T20:42:12.159Z,100940.38
2023-01-07T20:44:57.514Z,100928.03
2023-01-07T20:47:41.333Z,100929.94
2023-01-07T20:50:25.437Z,100931.34
2023-01-07T20:53:10.004Z,100924.50
2023-01-07T20:55:57.472Z,100927.34
2023-01-07T20:58:41.543Z,100924.13
2023-01-07T21:01:27.057Z,100928.22
2023-01-07T21:04:11.080Z,100923.19
2023-01-07T21:06:55.211Z,100886.72
2023-01-07T21:09:39.444Z,100874.84
2023-01-07T21:12:23.665Z,100927.09
2023-01-07T21:15:08.937Z,100881.09
2023-01-07T21:17:55.843Z,100877.88
2023-01-07T21:20:41.153Z,100930.50
2023-01-07T21:23:26.292Z,100925.03
2023-01-07T21:26:10.968Z,100933.63
2023-01-07T21:28:56.808Z,100931.31
2023-01-07T21:31:40.864Z,100919.72
2023-01-07T21:34:26.270Z,100892.91
2023-01-07T21:37:10.232Z,100849.53
2023-01-07T21:39:54.194Z,100921.91
2023-01-07T21:42:38.202Z,100893.91
2023-01-07T21:45:22.124Z,100896.41
2023-01-07T21:48:06.610Z,100938.00
2023-01-07T21:50:52.209Z,100900.06
2023-01-07T21:53:37.209Z,100934.44
2023-01-07T21:56:21.282Z,100887.31
2023-01-07T21:59:05.308Z,100934.28
2023-01-07T22:01:49.431Z,100884.59
2023-01-07T22:04:35.057Z,100880.09
2023-01-07T22:07:20.966Z,100833.63
2023-01-07T22:10:05.343Z,100931.34
2023-01-07T22:12:49.229Z,100911.28
2023-01-07T22:15:33.061Z,100919.63
2023-01-07T22:18:17.372Z,100912.78
2023-01-07T22:21:01.225Z,100904.97
2023-01-07T22:23:47.448Z,100905.13
2023-01-07T22:26:31.222Z,100874.75
2023-01-07T22:29:16.162Z,100891.19
2023-01-07T22:31:59.878Z,100904.38
2023-01-07T22:34:43.639Z,100901.72
2023-01-07T22:37:27.555Z,100910.34
2023-01-07T22:40:13.876Z,100897.13
2023-01-07T22:42:59.972Z,100902.78
2023-01-07T22:45:50.962Z,100904.41
2023-01-07T22:48:36.596Z,100898.09
2023-01-07T22:51:25.133Z,100891.91
2023-01-07T22:54:09.483Z,100893.38
2023-01-07T22:56:55.399Z,100893.53
2023-01-07T22:59:39.570Z,100884.47
2023-01-07T23:02:23.496Z,100879.34
2023-01-07T23:05:08.083Z,100846.44
2023-01-07T23:07:51.886Z,100883.53
2023-01-07T23:10:37.281Z,100885.09
2023-01-07T23:13:22.530Z,100852.34
2023-01-07T23:16:07.713Z,100885.44
2023-01-07T23:18:51.702Z,100878.69
2023-01-07T23:21:37.677Z,100883.66
2023-01-07T23:24:22.291Z,100882.59
2023-01-07T23:27:06.427Z,100879.22
2023-01-07T23:29:51.778Z,100885.81
2023-01-07T23:32:35.750Z,100877.72
2023-01-07T23:35:19.734Z,100880.19
2023-01-07T23:38:03.967Z,100883.25
2023-01-07T23:40:47.831Z,100879.53
2023-01-07T23:43:32.207Z,100876.38
2023-01-07T23:46:17.529Z,100881.13
2023-01-07T23:49:01.386Z,100875.34
2023-01-07T23:51:45.343Z,100875.78
2023-01-07T23:54:29.035Z,100873.97
2023-01-07T23:57:12.959Z,100855.72
2023-01-07T23:59:56.792Z,100869.25
